sensor_id;sensor_type;location;lat;lon;timestamp;P1;durP1;ratioP1;P2;durP2;ratioP2
7460;SDS011;6757;52.258;12.840;2023-11-19T00:02:03;8.70;;;3.75;;
7460;SDS011;6757;52.258;12.840;2023-11-19T00:04:33;10.15;;;3.63;;
7460;SDS011;6757;52.258;12.840;2023-11-19T00:07:05;4.25;;;2.67;;
7460;SDS011;6757;52.258;12.840;2023-11-19T00:09:35;3.58;;;2.42;;
7460;SDS011;6757;52.258;12.840;2023-11-19T00:12:03;9.57;;;3.42;;
7460;SDS011;6757;52.258;12.840;2023-11-19T00:14:32;5.68;;;2.53;;
7460;SDS011;6757;52.258;12.840;2023-11-19T00:17:01;4.22;;;2.13;;
7460;SDS011;6757;52.258;12.840;2023-11-19T00:19:41;3.78;;;2.47;;
7460;SDS011;6757;52.258;12.840;2023-11-19T00:22:11;7.40;;;3.20;;
7460;SDS011;6757;52.258;12.840;2023-11-19T00:24:37;7.65;;;2.80;;
7460;SDS011;6757;52.258;12.840;2023-11-19T00:27:05;1.80;;;1.48;;
7460;SDS011;6757;52.258;12.840;2023-11-19T00:29:32;6.10;;;3.58;;
7460;SDS011;6757;52.258;12.840;2023-11-19T00:32:01;4.82;;;2.67;;
7460;SDS011;6757;52.258;12.840;2023-11-19T00:34:30;3.63;;;2.45;;
7460;SDS011;6757;52.258;12.840;2023-11-19T00:36:57;4.65;;;2.28;;
7460;SDS011;6757;52.258;12.840;2023-11-19T00:39:26;7.43;;;3.00;;
7460;SDS011;6757;52.258;12.840;2023-11-19T00:41:53;6.45;;;2.75;;
7460;SDS011;6757;52.258;12.840;2023-11-19T00:44:20;3.38;;;2.15;;
7460;SDS011;6757;52.258;12.840;2023-11-19T00:46:48;3.90;;;2.58;;
7460;SDS011;6757;52.258;12.840;2023-11-19T00:49:15;2.28;;;1.70;;
7460;SDS011;6757;52.258;12.840;2023-11-19T00:51:42;5.22;;;2.13;;
7460;SDS011;6757;52.258;12.840;2023-11-19T00:54:10;4.05;;;2.35;;
7460;SDS011;6757;52.258;12.840;2023-11-19T00:56:40;3.50;;;2.25;;
7460;SDS011;6757;52.258;12.840;2023-11-19T00:59:08;3.28;;;2.03;;
7460;SDS011;6757;52.258;12.840;2023-11-19T01:01:34;6.35;;;3.10;;
7460;SDS011;6757;52.258;12.840;2023-11-19T01:04:02;2.70;;;1.50;;
7460;SDS011;6757;52.258;12.840;2023-11-19T01:06:29;6.53;;;3.22;;
7460;SDS011;6757;52.258;12.840;2023-11-19T01:08:57;2.22;;;1.95;;
7460;SDS011;6757;52.258;12.840;2023-11-19T01:11:25;3.13;;;2.55;;
7460;SDS011;6757;52.258;12.840;2023-11-19T01:13:56;3.33;;;2.05;;
7460;SDS011;6757;52.258;12.840;2023-11-19T01:16:23;7.88;;;2.53;;
7460;SDS011;6757;52.258;12.840;2023-11-19T01:18:52;5.05;;;2.42;;
7460;SDS011;6757;52.258;12.840;2023-11-19T01:21:19;3.28;;;1.45;;
7460;SDS011;6757;52.258;12.840;2023-11-19T01:23:47;4.78;;;2.55;;
7460;SDS011;6757;52.258;12.840;2023-11-19T01:26:14;3.95;;;2.10;;
7460;SDS011;6757;52.258;12.840;2023-11-19T01:28:41;3.53;;;1.60;;
7460;SDS011;6757;52.258;12.840;2023-11-19T01:31:14;3.25;;;1.58;;
7460;SDS011;6757;52.258;12.840;2023-11-19T01:33:41;4.25;;;2.00;;
7460;SDS011;6757;52.258;12.840;2023-11-19T01:36:08;1.33;;;1.15;;
7460;SDS011;6757;52.258;12.840;2023-11-19T01:38:40;1.25;;;1.15;;
7460;SDS011;6757;52.258;12.840;2023-11-19T01:41:08;3.92;;;2.17;;
7460;SDS011;6757;52.258;12.840;2023-11-19T01:43:36;9.20;;;3.70;;
7460;SDS011;6757;52.258;12.840;2023-11-19T01:46:06;2.58;;;1.52;;
7460;SDS011;6757;52.258;12.840;2023-11-19T01:48:36;5.88;;;2.00;;
7460;SDS011;6757;52.258;12.840;2023-11-19T01:51:07;2.55;;;1.02;;
7460;SDS011;6757;52.258;12.840;2023-11-19T01:53:35;3.47;;;1.65;;
7460;SDS011;6757;52.258;12.840;2023-11-19T01:56:04;4.53;;;2.50;;
7460;SDS011;6757;52.258;12.840;2023-11-19T01:58:35;3.15;;;1.75;;
7460;SDS011;6757;52.258;12.840;2023-11-19T02:01:02;2.70;;;1.92;;
7460;SDS011;6757;52.258;12.840;2023-11-19T02:03:30;4.57;;;1.92;;
7460;SDS011;6757;52.258;12.840;2023-11-19T02:06:00;3.90;;;2.22;;
7460;SDS011;6757;52.258;12.840;2023-11-19T02:08:27;1.60;;;1.42;;
7460;SDS011;6757;52.258;12.840;2023-11-19T02:10:55;3.53;;;2.45;;
7460;SDS011;6757;52.258;12.840;2023-11-19T02:13:23;2.80;;;2.00;;
7460;SDS011;6757;52.258;12.840;2023-11-19T02:15:51;2.83;;;1.67;;
7460;SDS011;6757;52.258;12.840;2023-11-19T02:18:23;2.72;;;1.90;;
7460;SDS011;6757;52.258;12.840;2023-11-19T02:20:52;2.75;;;1.92;;
7460;SDS011;6757;52.258;12.840;2023-11-19T02:23:21;6.55;;;2.13;;
7460;SDS011;6757;52.258;12.840;2023-11-19T02:25:54;3.75;;;1.45;;
7460;SDS011;6757;52.258;12.840;2023-11-19T02:28:46;3.22;;;1.92;;
7460;SDS011;6757;52.258;12.840;2023-11-19T02:31:13;4.03;;;2.45;;
7460;SDS011;6757;52.258;12.840;2023-11-19T02:33:41;4.70;;;1.98;;
7460;SDS011;6757;52.258;12.840;2023-11-19T02:36:08;4.95;;;1.92;;
7460;SDS011;6757;52.258;12.840;2023-11-19T02:38:37;1.50;;;1.10;;
7460;SDS011;6757;52.258;12.840;2023-11-19T02:41:04;1.92;;;1.70;;
7460;SDS011;6757;52.258;12.840;2023-11-19T02:43:33;2.40;;;1.85;;
7460;SDS011;6757;52.258;12.840;2023-11-19T02:46:04;7.65;;;2.28;;
7460;SDS011;6757;52.258;12.840;2023-11-19T02:48:32;7.38;;;2.10;;
7460;SDS011;6757;52.258;12.840;2023-11-19T02:51:00;1.95;;;1.48;;
7460;SDS011;6757;52.258;12.840;2023-11-19T02:53:28;3.75;;;1.75;;
7460;SDS011;6757;52.258;12.840;2023-11-19T02:55:55;5.85;;;1.98;;
7460;SDS011;6757;52.258;12.840;2023-11-19T02:58:26;2.28;;;1.50;;
7460;SDS011;6757;52.258;12.840;2023-11-19T03:00:55;3.13;;;1.75;;
7460;SDS011;6757;52.258;12.840;2023-11-19T03:03:28;6.25;;;1.77;;
7460;SDS011;6757;52.258;12.840;2023-11-19T03:06:03;2.67;;;1.25;;
7460;SDS011;6757;52.258;12.840;2023-11-19T03:08:35;3.00;;;1.58;;
7460;SDS011;6757;52.258;12.840;2023-11-19T03:11:02;3.22;;;2.17;;
7460;SDS011;6757;52.258;12.840;2023-11-19T03:13:30;3.58;;;1.63;;
7460;SDS011;6757;52.258;12.840;2023-11-19T03:15:57;1.95;;;1.17;;
7460;SDS011;6757;52.258;12.840;2023-11-19T03:18:27;4.55;;;1.30;;
7460;SDS011;6757;52.258;12.840;2023-11-19T03:20:55;6.80;;;2.08;;
7460;SDS011;6757;52.258;12.840;2023-11-19T03:23:23;1.35;;;1.25;;
7460;SDS011;6757;52.258;12.840;2023-11-19T03:25:52;3.10;;;2.15;;
7460;SDS011;6757;52.258;12.840;2023-11-19T03:28:19;3.35;;;2.28;;
7460;SDS011;6757;52.258;12.840;2023-11-19T03:30:46;2.38;;;1.70;;
7460;SDS011;6757;52.258;12.840;2023-11-19T03:33:14;4.53;;;2.08;;
7460;SDS011;6757;52.258;12.840;2023-11-19T03:35:43;4.38;;;1.08;;
7460;SDS011;6757;52.258;12.840;2023-11-19T03:38:11;4.25;;;1.88;;
7460;SDS011;6757;52.258;12.840;2023-11-19T03:40:36;3.00;;;1.63;;
7460;SDS011;6757;52.258;12.840;2023-11-19T03:43:06;3.95;;;1.98;;
7460;SDS011;6757;52.258;12.840;2023-11-19T03:45:34;7.05;;;1.85;;
7460;SDS011;6757;52.258;12.840;2023-11-19T03:48:02;2.60;;;1.83;;
7460;SDS011;6757;52.258;12.840;2023-11-19T03:50:30;1.77;;;1.13;;
7460;SDS011;6757;52.258;12.840;2023-11-19T03:53:00;5.35;;;2.03;;
7460;SDS011;6757;52.258;12.840;2023-11-19T03:55:27;2.30;;;2.03;;
7460;SDS011;6757;52.258;12.840;2023-11-19T03:57:54;2.25;;;1.48;;
7460;SDS011;6757;52.258;12.840;2023-11-19T04:00:21;3.35;;;1.27;;
7460;SDS011;6757;52.258;12.840;2023-11-19T04:02:48;4.53;;;1.60;;
7460;SDS011;6757;52.258;12.840;2023-11-19T04:05:17;3.22;;;1.35;;
7460;SDS011;6757;52.258;12.840;2023-11-19T04:07:45;1.33;;;0.77;;
7460;SDS011;6757;52.258;12.840;2023-11-19T04:10:15;1.73;;;1.27;;
7460;SDS011;6757;52.258;12.840;2023-11-19T04:12:43;2.42;;;1.58;;
7460;SDS011;6757;52.258;12.840;2023-11-19T04:15:11;1.83;;;1.27;;
7460;SDS011;6757;52.258;12.840;2023-11-19T04:17:38;2.50;;;1.33;;
7460;SDS011;6757;52.258;12.840;2023-11-19T04:20:06;3.20;;;1.67;;
7460;SDS011;6757;52.258;12.840;2023-11-19T04:22:37;2.58;;;1.75;;
7460;SDS011;6757;52.258;12.840;2023-11-19T04:25:04;3.45;;;1.90;;
7460;SDS011;6757;52.258;12.840;2023-11-19T04:27:34;2.25;;;1.27;;
7460;SDS011;6757;52.258;12.840;2023-11-19T04:30:02;1.15;;;0.98;;
7460;SDS011;6757;52.258;12.840;2023-11-19T04:32:30;1.60;;;1.50;;
7460;SDS011;6757;52.258;12.840;2023-11-19T04:34:57;4.18;;;1.98;;
7460;SDS011;6757;52.258;12.840;2023-11-19T04:37:24;3.97;;;2.38;;
7460;SDS011;6757;52.258;12.840;2023-11-19T04:39:52;2.03;;;1.15;;
7460;SDS011;6757;52.258;12.840;2023-11-19T04:42:18;3.92;;;1.75;;
7460;SDS011;6757;52.258;12.840;2023-11-19T04:44:47;1.60;;;1.23;;
7460;SDS011;6757;52.258;12.840;2023-11-19T04:47:14;1.95;;;1.52;;
7460;SDS011;6757;52.258;12.840;2023-11-19T04:49:42;5.18;;;1.75;;
7460;SDS011;6757;52.258;12.840;2023-11-19T04:52:10;3.25;;;1.75;;
7460;SDS011;6757;52.258;12.840;2023-11-19T04:54:40;5.95;;;1.95;;
7460;SDS011;6757;52.258;12.840;2023-11-19T04:57:08;3.45;;;1.85;;
7460;SDS011;6757;52.258;12.840;2023-11-19T04:59:37;1.13;;;0.93;;
7460;SDS011;6757;52.258;12.840;2023-11-19T05:02:06;1.92;;;1.30;;
7460;SDS011;6757;52.258;12.840;2023-11-19T05:04:33;1.17;;;0.95;;
7460;SDS011;6757;52.258;12.840;2023-11-19T05:07:00;0.55;;;0.55;;
7460;SDS011;6757;52.258;12.840;2023-11-19T05:09:26;2.22;;;1.48;;
7460;SDS011;6757;52.258;12.840;2023-11-19T05:11:54;1.33;;;0.75;;
7460;SDS011;6757;52.258;12.840;2023-11-19T05:14:21;2.15;;;1.15;;
7460;SDS011;6757;52.258;12.840;2023-11-19T05:16:49;1.80;;;1.05;;
7460;SDS011;6757;52.258;12.840;2023-11-19T05:19:18;3.80;;;2.05;;
7460;SDS011;6757;52.258;12.840;2023-11-19T05:21:45;2.55;;;1.10;;
7460;SDS011;6757;52.258;12.840;2023-11-19T05:24:14;1.92;;;1.23;;
7460;SDS011;6757;52.258;12.840;2023-11-19T05:26:41;2.10;;;1.02;;
7460;SDS011;6757;52.258;12.840;2023-11-19T05:29:08;1.33;;;0.88;;
7460;SDS011;6757;52.258;12.840;2023-11-19T05:31:35;0.95;;;0.77;;
7460;SDS011;6757;52.258;12.840;2023-11-19T05:34:02;2.92;;;1.48;;
7460;SDS011;6757;52.258;12.840;2023-11-19T05:36:31;0.60;;;0.60;;
7460;SDS011;6757;52.258;12.840;2023-11-19T05:38:58;0.85;;;0.85;;
7460;SDS011;6757;52.258;12.840;2023-11-19T05:41:25;2.25;;;1.05;;
7460;SDS011;6757;52.258;12.840;2023-11-19T05:43:52;3.88;;;1.73;;
7460;SDS011;6757;52.258;12.840;2023-11-19T05:46:20;2.72;;;1.33;;
7460;SDS011;6757;52.258;12.840;2023-11-19T05:48:47;1.45;;;0.68;;
7460;SDS011;6757;52.258;12.840;2023-11-19T05:51:14;4.53;;;1.35;;
7460;SDS011;6757;52.258;12.840;2023-11-19T05:53:44;1.65;;;1.38;;
7460;SDS011;6757;52.258;12.840;2023-11-19T05:56:12;2.72;;;1.30;;
7460;SDS011;6757;52.258;12.840;2023-11-19T05:58:46;2.00;;;0.68;;
7460;SDS011;6757;52.258;12.840;2023-11-19T06:01:13;1.55;;;1.15;;
7460;SDS011;6757;52.258;12.840;2023-11-19T06:03:40;1.55;;;1.42;;
7460;SDS011;6757;52.258;12.840;2023-11-19T06:06:08;2.92;;;1.50;;
7460;SDS011;6757;52.258;12.840;2023-11-19T06:08:37;2.35;;;1.30;;
7460;SDS011;6757;52.258;12.840;2023-11-19T06:11:06;2.50;;;1.52;;
7460;SDS011;6757;52.258;12.840;2023-11-19T06:13:33;3.95;;;1.30;;
7460;SDS011;6757;52.258;12.840;2023-11-19T06:16:01;2.10;;;1.58;;
7460;SDS011;6757;52.258;12.840;2023-11-19T06:18:28;3.05;;;1.65;;
7460;SDS011;6757;52.258;12.840;2023-11-19T06:20:56;3.42;;;1.55;;
7460;SDS011;6757;52.258;12.840;2023-11-19T06:23:23;3.15;;;1.08;;
7460;SDS011;6757;52.258;12.840;2023-11-19T06:25:50;2.20;;;1.15;;
7460;SDS011;6757;52.258;12.840;2023-11-19T06:28:19;2.58;;;1.20;;
7460;SDS011;6757;52.258;12.840;2023-11-19T06:30:45;2.45;;;1.52;;
7460;SDS011;6757;52.258;12.840;2023-11-19T06:33:12;4.25;;;0.88;;
7460;SDS011;6757;52.258;12.840;2023-11-19T06:35:40;3.08;;;1.00;;
7460;SDS011;6757;52.258;12.840;2023-11-19T06:38:08;2.22;;;1.13;;
7460;SDS011;6757;52.258;12.840;2023-11-19T06:40:35;2.60;;;1.50;;
7460;SDS011;6757;52.258;12.840;2023-11-19T06:43:03;4.60;;;1.98;;
7460;SDS011;6757;52.258;12.840;2023-11-19T06:45:34;1.55;;;0.90;;
7460;SDS011;6757;52.258;12.840;2023-11-19T06:48:02;4.07;;;1.63;;
7460;SDS011;6757;52.258;12.840;2023-11-19T06:50:29;2.97;;;1.25;;
7460;SDS011;6757;52.258;12.840;2023-11-19T06:52:56;2.83;;;1.02;;
7460;SDS011;6757;52.258;12.840;2023-11-19T06:55:24;2.88;;;1.52;;
7460;SDS011;6757;52.258;12.840;2023-11-19T06:57:52;2.63;;;1.42;;
7460;SDS011;6757;52.258;12.840;2023-11-19T07:00:18;1.17;;;1.13;;
7460;SDS011;6757;52.258;12.840;2023-11-19T07:02:46;1.90;;;1.30;;
7460;SDS011;6757;52.258;12.840;2023-11-19T07:05:14;2.25;;;1.33;;
7460;SDS011;6757;52.258;12.840;2023-11-19T07:07:41;2.40;;;1.13;;
7460;SDS011;6757;52.258;12.840;2023-11-19T07:10:08;2.08;;;1.23;;
7460;SDS011;6757;52.258;12.840;2023-11-19T07:12:35;3.08;;;1.38;;
7460;SDS011;6757;52.258;12.840;2023-11-19T07:15:02;0.45;;;0.45;;
7460;SDS011;6757;52.258;12.840;2023-11-19T07:17:31;2.03;;;1.35;;
7460;SDS011;6757;52.258;12.840;2023-11-19T07:20:01;3.45;;;1.40;;
7460;SDS011;6757;52.258;12.840;2023-11-19T07:22:29;1.75;;;1.23;;
7460;SDS011;6757;52.258;12.840;2023-11-19T07:24:56;4.15;;;1.02;;
7460;SDS011;6757;52.258;12.840;2023-11-19T07:27:23;0.75;;;0.75;;
7460;SDS011;6757;52.258;12.840;2023-11-19T07:29:50;1.50;;;1.20;;
7460;SDS011;6757;52.258;12.840;2023-11-19T07:32:17;0.98;;;0.98;;
7460;SDS011;6757;52.258;12.840;2023-11-19T07:34:44;3.67;;;1.25;;
7460;SDS011;6757;52.258;12.840;2023-11-19T07:37:13;2.03;;;1.38;;
7460;SDS011;6757;52.258;12.840;2023-11-19T07:39:41;2.83;;;1.33;;
7460;SDS011;6757;52.258;12.840;2023-11-19T07:42:09;2.67;;;1.55;;
7460;SDS011;6757;52.258;12.840;2023-11-19T07:44:35;1.30;;;1.10;;
7460;SDS011;6757;52.258;12.840;2023-11-19T07:47:03;2.30;;;1.42;;
7460;SDS011;6757;52.258;12.840;2023-11-19T07:49:30;0.82;;;0.77;;
7460;SDS011;6757;52.258;12.840;2023-11-19T07:51:57;0.82;;;0.82;;
7460;SDS011;6757;52.258;12.840;2023-11-19T07:54:27;2.03;;;1.30;;
7460;SDS011;6757;52.258;12.840;2023-11-19T07:56:53;1.63;;;0.88;;
7460;SDS011;6757;52.258;12.840;2023-11-19T07:59:21;2.03;;;0.73;;
7460;SDS011;6757;52.258;12.840;2023-11-19T08:01:49;2.00;;;1.15;;
7460;SDS011;6757;52.258;12.840;2023-11-19T08:04:15;1.88;;;1.35;;
7460;SDS011;6757;52.258;12.840;2023-11-19T08:06:42;1.92;;;1.15;;
7460;SDS011;6757;52.258;12.840;2023-11-19T08:09:10;1.45;;;0.98;;
7460;SDS011;6757;52.258;12.840;2023-11-19T08:11:40;1.52;;;0.93;;
7460;SDS011;6757;52.258;12.840;2023-11-19T08:14:06;1.00;;;1.00;;
7460;SDS011;6757;52.258;12.840;2023-11-19T08:16:36;1.02;;;1.02;;
7460;SDS011;6757;52.258;12.840;2023-11-19T08:19:04;0.85;;;0.85;;
7460;SDS011;6757;52.258;12.840;2023-11-19T08:21:33;0.75;;;0.73;;
7460;SDS011;6757;52.258;12.840;2023-11-19T08:24:00;0.30;;;0.30;;
7460;SDS011;6757;52.258;12.840;2023-11-19T08:26:28;1.63;;;1.50;;
7460;SDS011;6757;52.258;12.840;2023-11-19T08:28:56;1.35;;;1.25;;
7460;SDS011;6757;52.258;12.840;2023-11-19T08:31:24;1.25;;;0.77;;
7460;SDS011;6757;52.258;12.840;2023-11-19T08:33:51;2.20;;;0.77;;
7460;SDS011;6757;52.258;12.840;2023-11-19T08:36:18;2.70;;;0.82;;
7460;SDS011;6757;52.258;12.840;2023-11-19T08:38:46;1.35;;;1.20;;
7460;SDS011;6757;52.258;12.840;2023-11-19T08:41:14;1.85;;;0.70;;
7460;SDS011;6757;52.258;12.840;2023-11-19T08:43:42;0.77;;;0.73;;
7460;SDS011;6757;52.258;12.840;2023-11-19T08:46:11;1.15;;;0.90;;
7460;SDS011;6757;52.258;12.840;2023-11-19T08:48:38;1.33;;;1.17;;
7460;SDS011;6757;52.258;12.840;2023-11-19T08:51:06;2.17;;;1.10;;
7460;SDS011;6757;52.258;12.840;2023-11-19T08:53:33;0.75;;;0.75;;
7460;SDS011;6757;52.258;12.840;2023-11-19T08:56:01;1.00;;;1.00;;
7460;SDS011;6757;52.258;12.840;2023-11-19T08:58:28;0.90;;;0.63;;
7460;SDS011;6757;52.258;12.840;2023-11-19T09:00:55;1.38;;;0.52;;
7460;SDS011;6757;52.258;12.840;2023-11-19T09:03:26;0.80;;;0.77;;
7460;SDS011;6757;52.258;12.840;2023-11-19T09:05:54;1.38;;;0.90;;
7460;SDS011;6757;52.258;12.840;2023-11-19T09:08:23;0.57;;;0.57;;
7460;SDS011;6757;52.258;12.840;2023-11-19T09:10:51;1.33;;;1.05;;
7460;SDS011;6757;52.258;12.840;2023-11-19T09:13:20;0.65;;;0.63;;
7460;SDS011;6757;52.258;12.840;2023-11-19T09:15:48;0.80;;;0.50;;
7460;SDS011;6757;52.258;12.840;2023-11-19T09:18:15;2.40;;;0.88;;
7460;SDS011;6757;52.258;12.840;2023-11-19T09:20:43;2.70;;;1.10;;
7460;SDS011;6757;52.258;12.840;2023-11-19T09:23:11;0.50;;;0.50;;
7460;SDS011;6757;52.258;12.840;2023-11-19T09:25:38;1.40;;;0.98;;
7460;SDS011;6757;52.258;12.840;2023-11-19T09:28:06;1.42;;;1.08;;
7460;SDS011;6757;52.258;12.840;2023-11-19T09:30:35;1.17;;;0.82;;
7460;SDS011;6757;52.258;12.840;2023-11-19T09:33:03;1.60;;;1.00;;
7460;SDS011;6757;52.258;12.840;2023-11-19T09:35:30;0.88;;;0.50;;
7460;SDS011;6757;52.258;12.840;2023-11-19T09:37:59;0.75;;;0.55;;
7460;SDS011;6757;52.258;12.840;2023-11-19T09:40:26;1.17;;;0.88;;
7460;SDS011;6757;52.258;12.840;2023-11-19T09:42:56;2.38;;;0.85;;
7460;SDS011;6757;52.258;12.840;2023-11-19T09:45:24;1.15;;;0.93;;
7460;SDS011;6757;52.258;12.840;2023-11-19T09:47:54;0.90;;;0.90;;
7460;SDS011;6757;52.258;12.840;2023-11-19T09:50:22;2.53;;;1.40;;
7460;SDS011;6757;52.258;12.840;2023-11-19T09:52:50;1.77;;;1.35;;
7460;SDS011;6757;52.258;12.840;2023-11-19T09:55:19;1.55;;;1.30;;
7460;SDS011;6757;52.258;12.840;2023-11-19T09:57:46;0.93;;;0.80;;
7460;SDS011;6757;52.258;12.840;2023-11-19T10:00:17;1.25;;;1.13;;
7460;SDS011;6757;52.258;12.840;2023-11-19T10:02:46;1.20;;;1.10;;
7460;SDS011;6757;52.258;12.840;2023-11-19T10:05:14;2.67;;;1.38;;
7460;SDS011;6757;52.258;12.840;2023-11-19T10:07:42;1.73;;;1.33;;
7460;SDS011;6757;52.258;12.840;2023-11-19T10:10:09;4.15;;;1.25;;
7460;SDS011;6757;52.258;12.840;2023-11-19T10:12:44;1.65;;;1.50;;
7460;SDS011;6757;52.258;12.840;2023-11-19T10:15:16;1.98;;;1.40;;
7460;SDS011;6757;52.258;12.840;2023-11-19T10:17:49;2.35;;;1.10;;
7460;SDS011;6757;52.258;12.840;2023-11-19T10:20:16;2.45;;;1.67;;
7460;SDS011;6757;52.258;12.840;2023-11-19T10:22:43;1.85;;;1.30;;
7460;SDS011;6757;52.258;12.840;2023-11-19T10:25:21;5.47;;;2.33;;
7460;SDS011;6757;52.258;12.840;2023-11-19T10:27:50;3.50;;;1.83;;
7460;SDS011;6757;52.258;12.840;2023-11-19T10:30:19;5.93;;;1.90;;
7460;SDS011;6757;52.258;12.840;2023-11-19T10:32:52;4.18;;;1.83;;
7460;SDS011;6757;52.258;12.840;2023-11-19T10:35:30;5.40;;;1.88;;
7460;SDS011;6757;52.258;12.840;2023-11-19T10:37:59;7.38;;;2.03;;
7460;SDS011;6757;52.258;12.840;2023-11-19T10:40:37;5.28;;;1.63;;
7460;SDS011;6757;52.258;12.840;2023-11-19T10:43:08;2.90;;;1.52;;
7460;SDS011;6757;52.258;12.840;2023-11-19T10:45:35;2.40;;;1.83;;
7460;SDS011;6757;52.258;12.840;2023-11-19T10:48:04;2.90;;;1.70;;
7460;SDS011;6757;52.258;12.840;2023-11-19T10:50:33;3.45;;;1.60;;
7460;SDS011;6757;52.258;12.840;2023-11-19T10:53:01;6.95;;;1.98;;
7460;SDS011;6757;52.258;12.840;2023-11-19T10:55:30;2.28;;;1.90;;
7460;SDS011;6757;52.258;12.840;2023-11-19T10:58:00;6.13;;;2.10;;
7460;SDS011;6757;52.258;12.840;2023-11-19T11:00:38;3.88;;;2.15;;
7460;SDS011;6757;52.258;12.840;2023-11-19T11:03:11;5.40;;;2.30;;
7460;SDS011;6757;52.258;12.840;2023-11-19T11:05:43;3.50;;;2.13;;
7460;SDS011;6757;52.258;12.840;2023-11-19T11:08:16;5.40;;;2.38;;
7460;SDS011;6757;52.258;12.840;2023-11-19T11:10:44;3.65;;;1.83;;
7460;SDS011;6757;52.258;12.840;2023-11-19T11:13:13;7.35;;;2.42;;
7460;SDS011;6757;52.258;12.840;2023-11-19T11:15:42;5.03;;;2.30;;
7460;SDS011;6757;52.258;12.840;2023-11-19T11:18:11;2.53;;;2.20;;
7460;SDS011;6757;52.258;12.840;2023-11-19T11:20:39;4.95;;;2.45;;
7460;SDS011;6757;52.258;12.840;2023-11-19T11:23:13;4.22;;;2.40;;
7460;SDS011;6757;52.258;12.840;2023-11-19T11:26:00;8.10;;;2.13;;
7460;SDS011;6757;52.258;12.840;2023-11-19T11:28:52;7.22;;;1.95;;
7460;SDS011;6757;52.258;12.840;2023-11-19T11:31:36;7.60;;;2.50;;
7460;SDS011;6757;52.258;12.840;2023-11-19T11:34:20;3.97;;;1.90;;
7460;SDS011;6757;52.258;12.840;2023-11-19T11:37:14;5.53;;;2.42;;
7460;SDS011;6757;52.258;12.840;2023-11-19T11:39:45;7.68;;;2.58;;
7460;SDS011;6757;52.258;12.840;2023-11-19T11:42:32;4.35;;;1.90;;
7460;SDS011;6757;52.258;12.840;2023-11-19T11:45:01;5.53;;;2.28;;
7460;SDS011;6757;52.258;12.840;2023-11-19T11:50:51;4.47;;;1.63;;
7460;SDS011;6757;52.258;12.840;2023-11-19T11:53:21;4.00;;;2.10;;
7460;SDS011;6757;52.258;12.840;2023-11-19T11:55:54;7.38;;;2.78;;
7460;SDS011;6757;52.258;12.840;2023-11-19T11:58:30;9.98;;;2.90;;
7460;SDS011;6757;52.258;12.840;2023-11-19T12:01:00;9.38;;;2.47;;
7460;SDS011;6757;52.258;12.840;2023-11-19T12:03:32;7.90;;;2.78;;
7460;SDS011;6757;52.258;12.840;2023-11-19T12:06:00;6.55;;;2.53;;
7460;SDS011;6757;52.258;12.840;2023-11-19T12:08:28;5.25;;;2.20;;
7460;SDS011;6757;52.258;12.840;2023-11-19T12:10:57;6.38;;;2.20;;
7460;SDS011;6757;52.258;12.840;2023-11-19T12:13:29;6.95;;;2.15;;
7460;SDS011;6757;52.258;12.840;2023-11-19T12:16:13;8.40;;;2.45;;
7460;SDS011;6757;52.258;12.840;2023-11-19T12:18:47;6.80;;;2.60;;
7460;SDS011;6757;52.258;12.840;2023-11-19T12:21:27;9.07;;;2.55;;
7460;SDS011;6757;52.258;12.840;2023-11-19T12:23:55;8.70;;;2.80;;
7460;SDS011;6757;52.258;12.840;2023-11-19T12:26:35;7.82;;;2.40;;
7460;SDS011;6757;52.258;12.840;2023-11-19T12:29:04;5.05;;;1.83;;
7460;SDS011;6757;52.258;12.840;2023-11-19T12:31:32;11.63;;;2.10;;
7460;SDS011;6757;52.258;12.840;2023-11-19T12:34:09;5.63;;;2.10;;
7460;SDS011;6757;52.258;12.840;2023-11-19T12:36:38;5.55;;;2.60;;
7460;SDS011;6757;52.258;12.840;2023-11-19T12:39:07;8.15;;;2.28;;
7460;SDS011;6757;52.258;12.840;2023-11-19T12:41:50;5.55;;;2.20;;
7460;SDS011;6757;52.258;12.840;2023-11-19T12:44:19;6.88;;;2.88;;
7460;SDS011;6757;52.258;12.840;2023-11-19T12:46:46;8.48;;;2.63;;
7460;SDS011;6757;52.258;12.840;2023-11-19T12:49:16;12.95;;;3.20;;
7460;SDS011;6757;52.258;12.840;2023-11-19T12:51:43;10.70;;;2.75;;
7460;SDS011;6757;52.258;12.840;2023-11-19T12:54:11;12.43;;;2.88;;
7460;SDS011;6757;52.258;12.840;2023-11-19T12:56:38;9.15;;;3.03;;
7460;SDS011;6757;52.258;12.840;2023-11-19T12:59:10;8.98;;;1.95;;
7460;SDS011;6757;52.258;12.840;2023-11-19T13:01:39;7.53;;;2.65;;
7460;SDS011;6757;52.258;12.840;2023-11-19T13:04:18;12.60;;;2.78;;
7460;SDS011;6757;52.258;12.840;2023-11-19T13:06:45;8.00;;;2.75;;
7460;SDS011;6757;52.258;12.840;2023-11-19T13:09:22;9.68;;;2.47;;
7460;SDS011;6757;52.258;12.840;2023-11-19T13:11:50;7.53;;;1.90;;
7460;SDS011;6757;52.258;12.840;2023-11-19T13:14:19;14.27;;;2.58;;
7460;SDS011;6757;52.258;12.840;2023-11-19T13:16:46;10.77;;;2.95;;
7460;SDS011;6757;52.258;12.840;2023-11-19T13:19:20;12.55;;;2.47;;
7460;SDS011;6757;52.258;12.840;2023-11-19T13:21:49;6.95;;;1.77;;
7460;SDS011;6757;52.258;12.840;2023-11-19T13:24:16;4.47;;;2.20;;
7460;SDS011;6757;52.258;12.840;2023-11-19T13:26:44;3.75;;;1.60;;
7460;SDS011;6757;52.258;12.840;2023-11-19T13:29:12;6.63;;;2.13;;
7460;SDS011;6757;52.258;12.840;2023-11-19T13:31:40;7.43;;;2.25;;
7460;SDS011;6757;52.258;12.840;2023-11-19T13:34:07;5.43;;;2.40;;
7460;SDS011;6757;52.258;12.840;2023-11-19T13:36:37;7.13;;;1.92;;
7460;SDS011;6757;52.258;12.840;2023-11-19T13:39:04;6.30;;;2.13;;
7460;SDS011;6757;52.258;12.840;2023-11-19T13:41:32;5.65;;;1.80;;
7460;SDS011;6757;52.258;12.840;2023-11-19T13:43:59;8.13;;;2.33;;
7460;SDS011;6757;52.258;12.840;2023-11-19T13:46:26;6.88;;;1.77;;
7460;SDS011;6757;52.258;12.840;2023-11-19T13:48:54;10.23;;;2.45;;
7460;SDS011;6757;52.258;12.840;2023-11-19T13:51:21;6.15;;;1.58;;
7460;SDS011;6757;52.258;12.840;2023-11-19T13:53:51;4.00;;;1.77;;
7460;SDS011;6757;52.258;12.840;2023-11-19T13:56:19;4.45;;;1.75;;
7460;SDS011;6757;52.258;12.840;2023-11-19T13:58:46;10.23;;;2.20;;
7460;SDS011;6757;52.258;12.840;2023-11-19T14:01:12;10.27;;;2.40;;
7460;SDS011;6757;52.258;12.840;2023-11-19T14:03:40;4.85;;;2.13;;
7460;SDS011;6757;52.258;12.840;2023-11-19T14:06:08;6.20;;;3.05;;
7460;SDS011;6757;52.258;12.840;2023-11-19T14:08:37;3.92;;;1.90;;
7460;SDS011;6757;52.258;12.840;2023-11-19T14:11:06;5.88;;;1.70;;
7460;SDS011;6757;52.258;12.840;2023-11-19T14:13:34;15.07;;;2.47;;
7460;SDS011;6757;52.258;12.840;2023-11-19T14:16:01;2.70;;;1.63;;
7460;SDS011;6757;52.258;12.840;2023-11-19T14:18:29;4.22;;;2.13;;
7460;SDS011;6757;52.258;12.840;2023-11-19T14:20:59;4.07;;;1.73;;
7460;SDS011;6757;52.258;12.840;2023-11-19T14:23:28;7.70;;;2.10;;
7460;SDS011;6757;52.258;12.840;2023-11-19T14:25:55;6.75;;;1.65;;
7460;SDS011;6757;52.258;12.840;2023-11-19T14:28:26;8.63;;;2.10;;
7460;SDS011;6757;52.258;12.840;2023-11-19T14:30:54;7.68;;;2.33;;
7460;SDS011;6757;52.258;12.840;2023-11-19T14:33:22;5.38;;;2.00;;
7460;SDS011;6757;52.258;12.840;2023-11-19T14:35:50;5.82;;;1.92;;
7460;SDS011;6757;52.258;12.840;2023-11-19T14:38:18;4.35;;;1.80;;
7460;SDS011;6757;52.258;12.840;2023-11-19T14:40:46;5.18;;;1.77;;
7460;SDS011;6757;52.258;12.840;2023-11-19T14:43:14;5.45;;;1.85;;
7460;SDS011;6757;52.258;12.840;2023-11-19T14:45:42;3.55;;;1.95;;
7460;SDS011;6757;52.258;12.840;2023-11-19T14:48:09;4.90;;;1.65;;
7460;SDS011;6757;52.258;12.840;2023-11-19T14:50:43;7.10;;;1.23;;
7460;SDS011;6757;52.258;12.840;2023-11-19T14:53:11;3.72;;;1.45;;
7460;SDS011;6757;52.258;12.840;2023-11-19T14:55:38;8.27;;;2.17;;
7460;SDS011;6757;52.258;12.840;2023-11-19T14:58:05;9.80;;;1.85;;
7460;SDS011;6757;52.258;12.840;2023-11-19T15:00:32;9.55;;;2.28;;
7460;SDS011;6757;52.258;12.840;2023-11-19T15:03:03;5.05;;;2.00;;
7460;SDS011;6757;52.258;12.840;2023-11-19T15:05:31;9.95;;;2.40;;
7460;SDS011;6757;52.258;12.840;2023-11-19T15:07:59;4.68;;;2.22;;
7460;SDS011;6757;52.258;12.840;2023-11-19T15:10:25;5.63;;;1.90;;
7460;SDS011;6757;52.258;12.840;2023-11-19T15:12:52;9.50;;;2.33;;
7460;SDS011;6757;52.258;12.840;2023-11-19T15:15:19;5.47;;;1.83;;